Time;durP1;ratioP1;P1;durP2;ratioP2;P2;SDS_P1;SDS_P2;PMS_P1;PMS_P2;Temp;Humidity;BMP_temperature;BMP_pressure;BME280_temperature;BME280_humidity;BME280_pressure;Samples;Min_cycle;Max_cycle;Signal;HPM_P1;HPM_P2
2021/05/01 00:00:35;;;;;;;4.60;2.58;;;;;;;5.10;54.95;100529.56;5083760;28;20111;-66
2021/05/01 00:03:01;;;;;;;4.35;2.85;;;;;;;5.10;55.41;100531.31;5083787;28;20035;-65
2021/05/01 00:05:26;;;;;;;3.67;2.30;;;;;;;5.11;55.43;100533.03;5083448;28;20031;-65
2021/05/01 00:07:51;;;;;;;4.13;2.55;;;;;;;5.08;55.28;100534.69;5083680;28;20020;-65
2021/05/01 00:10:17;;;;;;;4.32;2.88;;;;;;;5.06;55.53;100525.22;5083627;28;20024;-65
2021/05/01 00:12:42;;;;;;;6.63;3.20;;;;;;;5.01;55.34;100527.72;5083653;28;20054;-66
2021/05/01 00:15:10;;;;;;;7.13;2.80;;;;;;;5.02;55.17;100529.44;5083579;28;20024;-65
2021/05/01 00:17:36;;;;;;;6.28;3.22;;;;;;;5.01;54.84;100532.00;5083449;28;20025;-65
2021/05/01 00:20:02;;;;;;;4.93;3.38;;;;;;;4.96;54.82;100527.66;5082975;28;20096;-66
2021/05/01 00:22:27;;;;;;;5.70;3.70;;;;;;;4.95;54.75;100533.63;5083595;28;20028;-65
2021/05/01 00:24:53;;;;;;;8.02;3.10;;;;;;;4.94;54.38;100531.91;5083334;28;20032;-68
2021/05/01 00:27:18;;;;;;;4.28;2.72;;;;;;;4.93;54.31;100535.31;5081995;28;20033;-66
2021/05/01 00:29:43;;;;;;;3.70;2.97;;;;;;;4.92;54.27;100530.16;5083556;28;20088;-66
2021/05/01 00:32:09;;;;;;;11.15;2.97;;;;;;;4.86;54.29;100520.59;5083361;28;20074;-66
2021/05/01 00:34:34;;;;;;;8.02;2.95;;;;;;;4.88;54.13;100521.50;5083294;28;20047;-66
2021/05/01 00:37:00;;;;;;;3.97;2.78;;;;;;;4.87;54.08;100522.34;5082184;28;20032;-66
2021/05/01 00:39:25;;;;;;;5.15;2.97;;;;;;;4.81;54.04;100519.66;5083439;28;20036;-67
2021/05/01 00:41:50;;;;;;;5.50;3.20;;;;;;;4.80;54.17;100523.06;5083192;28;20095;-66
2021/05/01 00:44:17;;;;;;;7.43;2.83;;;;;;;4.78;54.23;100524.75;5083284;28;20035;-66
2021/05/01 00:46:42;;;;;;;4.93;2.88;;;;;;;4.76;54.08;100521.31;5082959;28;20039;-66
2021/05/01 00:49:08;;;;;;;4.00;2.55;;;;;;;4.76;54.25;100521.31;5082865;28;20028;-65
2021/05/01 00:51:33;;;;;;;4.68;2.80;;;;;;;4.73;54.22;100518.69;5083161;28;20016;-65
2021/05/01 00:54:00;;;;;;;3.80;2.17;;;;;;;4.73;54.09;100522.09;5083292;28;20025;-65
2021/05/01 00:56:25;;;;;;;3.35;2.35;;;;;;;4.72;54.03;100517.81;5082885;28;20070;-65
2021/05/01 00:58:51;;;;;;;4.40;2.83;;;;;;;4.70;54.05;100517.78;5083113;28;20603;-66
2021/05/01 01:01:19;;;;;;;7.07;2.92;;;;;;;4.69;54.14;100516.06;5082782;28;20537;-65
2021/05/01 01:03:47;;;;;;;3.40;2.50;;;;;;;4.64;54.26;100515.09;5082830;28;20021;-64
2021/05/01 01:06:14;;;;;;;6.78;3.05;;;;;;;4.68;54.17;100524.59;5082568;28;20017;-64
2021/05/01 01:08:40;;;;;;;3.80;2.20;;;;;;;4.69;54.52;100520.31;5082736;28;20384;-66
2021/05/01 01:11:05;;;;;;;5.47;2.65;;;;;;;4.68;54.46;100524.59;5082706;28;20053;-65
2021/05/01 01:13:31;;;;;;;5.63;2.75;;;;;;;4.69;54.63;100531.47;5082997;28;20021;-65
2021/05/01 01:15:57;;;;;;;3.75;2.88;;;;;;;4.66;54.59;100518.56;5082379;28;20021;-64
2021/05/01 01:18:22;;;;;;;4.25;2.67;;;;;;;4.69;54.61;100525.47;5082892;28;20023;-66
2021/05/01 01:20:48;;;;;;;4.40;2.92;;;;;;;4.67;54.65;100525.44;5082536;28;20077;-66
2021/05/01 01:23:13;;;;;;;3.92;2.42;;;;;;;4.64;54.59;100525.38;5082549;28;20056;-66
2021/05/01 01:25:39;;;;;;;3.08;2.17;;;;;;;4.65;54.69;100526.25;5082409;28;20027;-65
2021/05/01 01:28:05;;;;;;;3.65;2.25;;;;;;;4.63;54.58;100521.09;5082543;28;20043;-65
2021/05/01 01:30:31;;;;;;;3.78;2.10;;;;;;;4.59;54.53;100516.72;5082529;28;20021;-65
2021/05/01 01:33:01;;;;;;;5.43;2.72;;;;;;;4.63;54.80;100525.34;5084039;28;20100;-65
2021/05/01 01:35:27;;;;;;;4.43;2.47;;;;;;;4.63;54.61;100525.34;5085917;28;20025;-65
2021/05/01 01:37:53;;;;;;;4.07;2.45;;;;;;;4.63;54.60;100522.78;5086114;28;20025;-65
2021/05/01 01:40:20;;;;;;;3.58;2.45;;;;;;;4.61;54.66;100530.47;5085900;28;20093;-65
2021/05/01 01:42:46;;;;;;;4.03;2.53;;;;;;;4.59;54.45;100535.59;5085710;28;20032;-65
2021/05/01 01:45:13;;;;;;;5.22;2.50;;;;;;;4.58;54.55;100538.13;5086020;28;20025;-65
2021/05/01 01:47:39;;;;;;;4.45;2.70;;;;;;;4.56;54.50;100542.38;5085959;28;20035;-65
2021/05/01 01:50:07;;;;;;;4.57;2.67;;;;;;;4.53;54.47;100547.47;5085660;28;20020;-65
2021/05/01 01:52:35;;;;;;;3.95;2.40;;;;;;;4.50;54.62;100537.13;5085780;28;20021;-65
2021/05/01 01:55:01;;;;;;;3.47;2.25;;;;;;;4.46;54.46;100536.19;5085904;28;20076;-65
2021/05/01 01:57:26;;;;;;;4.68;2.40;;;;;;;4.43;54.52;100536.13;5085549;28;20044;-66
2021/05/01 01:59:51;;;;;;;5.40;2.53;;;;;;;4.38;54.65;100530.06;5085869;28;20028;-65
2021/05/01 02:02:18;;;;;;;3.75;2.33;;;;;;;4.39;54.67;100527.50;5085664;28;20285;-66
2021/05/01 02:04:43;;;;;;;3.33;2.60;;;;;;;4.38;54.63;100530.06;5085514;28;20032;-66
2021/05/01 02:07:08;;;;;;;5.85;2.70;;;;;;;4.40;54.68;100536.06;5085520;28;20527;-66
2021/05/01 02:09:34;;;;;;;7.43;2.58;;;;;;;4.39;54.88;100524.06;5085579;28;20021;-66
2021/05/01 02:11:59;;;;;;;6.55;2.30;;;;;;;4.40;54.85;100530.94;5085655;28;20028;-65
2021/05/01 02:14:24;;;;;;;3.42;2.00;;;;;;;4.40;55.02;100536.06;5085619;28;20024;-65
2021/05/01 02:16:50;;;;;;;6.80;2.53;;;;;;;4.37;55.44;100529.19;5085448;28;20032;-65
2021/05/01 02:19:15;;;;;;;2.78;1.98;;;;;;;4.40;55.13;100539.50;5085285;28;20481;-65
2021/05/01 02:21:41;;;;;;;6.20;2.13;;;;;;;4.41;55.26;100536.09;5085362;28;20021;-66
2021/05/01 02:24:06;;;;;;;3.08;1.92;;;;;;;4.41;55.23;100528.38;5085496;28;20033;-66
2021/05/01 02:26:32;;;;;;;4.55;2.33;;;;;;;4.41;55.10;100536.09;5083916;28;20122;-66
2021/05/01 02:28:57;;;;;;;3.10;2.30;;;;;;;4.41;55.30;100535.25;5085311;28;20031;-66
2021/05/01 02:31:22;;;;;;;4.63;2.28;;;;;;;4.40;55.45;100533.50;5085290;28;20024;-67
2021/05/01 02:33:48;;;;;;;5.88;2.30;;;;;;;4.39;55.55;100534.34;5084913;28;20040;-67
2021/05/01 02:36:13;;;;;;;2.60;1.98;;;;;;;4.38;55.92;100532.63;5084931;28;20099;-67
2021/05/01 02:38:38;;;;;;;4.32;2.35;;;;;;;4.37;56.11;100530.88;5085220;28;20040;-68
2021/05/01 02:41:04;;;;;;;3.72;2.05;;;;;;;4.36;56.13;100536.84;5085143;28;20020;-69
2021/05/01 02:43:29;;;;;;;4.00;1.98;;;;;;;4.36;56.30;100536.84;5084949;28;20028;-68
2021/05/01 02:45:55;;;;;;;3.55;2.15;;;;;;;4.36;56.46;100529.16;5085317;28;20465;-67
2021/05/01 02:48:20;;;;;;;4.65;2.22;;;;;;;4.38;56.43;100533.47;5084922;28;20140;-68
2021/05/01 02:50:45;;;;;;;4.28;2.03;;;;;;;4.40;56.57;100529.22;5083301;28;20020;-66
2021/05/01 02:53:11;;;;;;;2.75;1.92;;;;;;;4.41;56.67;100530.97;5084677;28;20034;-66
2021/05/01 02:55:36;;;;;;;7.25;2.20;;;;;;;4.42;56.85;100529.25;5084518;28;20024;-65
2021/05/01 02:58:02;;;;;;;2.53;1.80;;;;;;;4.38;57.28;100520.63;5084537;28;20043;-67
2021/05/01 03:00:28;;;;;;;2.90;2.03;;;;;;;4.43;58.06;100528.41;5084754;28;20028;-67
2021/05/01 03:02:56;;;;;;;5.63;2.08;;;;;;;4.43;57.79;100533.56;5084573;28;20044;-67
2021/05/01 03:05:25;;;;;;;3.78;2.08;;;;;;;4.44;58.17;100525.03;5084085;28;20032;-67
2021/05/01 03:07:51;;;;;;;3.17;1.83;;;;;;;4.43;58.25;100528.41;5084389;28;20115;-66
2021/05/01 03:10:22;;;;;;;3.17;2.15;;;;;;;4.44;58.18;100532.75;5084478;28;20035;-70
2021/05/01 03:12:47;;;;;;;3.22;1.95;;;;;;;4.42;58.03;100526.69;5084287;28;20024;-66
2021/05/01 03:15:14;;;;;;;6.25;2.35;;;;;;;4.32;57.80;100515.34;5084515;28;20024;-67
2021/05/01 03:17:40;;;;;;;4.22;2.30;;;;;;;4.31;57.81;100529.06;5084270;28;20024;-67
2021/05/01 03:20:06;;;;;;;3.72;2.45;;;;;;;4.24;57.85;100522.06;5084021;28;20092;-67
2021/05/01 03:22:33;;;;;;;3.67;2.35;;;;;;;4.14;57.86;100516.72;5084175;28;20017;-66
2021/05/01 03:24:58;;;;;;;5.25;3.13;;;;;;;4.05;57.70;100520.00;5084354;28;20059;-66
2021/05/01 03:27:24;;;;;;;5.22;3.00;;;;;;;3.95;57.75;100516.38;5084055;28;20025;-71
2021/05/01 03:29:49;;;;;;;6.40;3.42;;;;;;;3.84;57.79;100523.84;5084437;28;20047;-68
2021/05/01 03:32:15;;;;;;;8.02;3.67;;;;;;;3.71;58.02;100520.16;5084169;28;20020;-66
2021/05/01 03:34:40;;;;;;;6.38;4.18;;;;;;;3.62;57.94;100521.66;5083778;28;20027;-67
2021/05/01 03:37:06;;;;;;;4.45;3.30;;;;;;;3.49;58.37;100526.50;5083751;28;20028;-67
2021/05/01 03:39:31;;;;;;;6.22;3.38;;;;;;;3.40;58.80;100522.06;5084027;28;20043;-65
2021/05/01 03:41:57;;;;;;;7.40;3.97;;;;;;;3.35;58.87;100524.47;5083746;28;20392;-66
2021/05/01 03:44:22;;;;;;;7.18;3.90;;;;;;;3.31;58.78;100529.50;5083936;28;20036;-66
2021/05/01 03:46:47;;;;;;;5.68;3.50;;;;;;;3.25;58.57;100519.09;5083801;28;20028;-67
2021/05/01 03:49:13;;;;;;;5.32;3.00;;;;;;;3.28;58.73;100529.44;5083599;28;20473;-66
2021/05/01 03:51:38;;;;;;;7.32;3.65;;;;;;;3.36;59.06;100525.34;5083617;28;20024;-67
2021/05/01 03:54:04;;;;;;;5.68;3.40;;;;;;;3.55;59.69;100525.78;5083668;28;20099;-67
2021/05/01 03:56:33;;;;;;;5.28;3.10;;;;;;;3.92;58.98;100528.28;5081677;28;20051;-67
2021/05/01 03:58:59;;;;;;;5.28;3.50;;;;;;;4.40;59.37;100533.50;5083820;28;20039;-66
2021/05/01 04:01:24;;;;;;;5.22;3.55;;;;;;;4.94;59.10;100526.75;5083436;28;20017;-67
2021/05/01 04:03:50;;;;;;;5.72;3.17;;;;;;;5.55;58.67;100524.22;5083023;28;20028;-66
2021/05/01 04:06:15;;;;;;;6.28;3.03;;;;;;;6.18;58.08;100518.22;5083163;28;20523;-66
2021/05/01 04:08:40;;;;;;;4.70;3.13;;;;;;;6.68;56.75;100511.84;5083678;28;20021;-66
2021/05/01 04:11:06;;;;;;;5.63;2.75;;;;;;;7.14;55.99;100515.66;5083469;28;20050;-66
2021/05/01 04:13:32;;;;;;;5.13;3.22;;;;;;;7.56;54.95;100510.78;5083518;28;20024;-67
2021/05/01 04:15:58;;;;;;;5.30;3.00;;;;;;;7.98;54.25;100506.66;5083565;28;20050;-68
2021/05/01 04:18:24;;;;;;;7.45;3.65;;;;;;;8.42;53.34;100511.09;5083139;28;20031;-67
2021/05/01 04:20:49;;;;;;;5.75;3.17;;;;;;;8.93;52.98;100507.72;5081589;28;20151;-67
2021/05/01 04:23:15;;;;;;;5.72;3.05;;;;;;;9.51;51.99;100515.44;5083514;28;20097;-67
2021/05/01 04:25:40;;;;;;;6.40;3.20;;;;;;;10.10;50.96;100503.13;5083329;28;20476;-67
2021/05/01 04:28:05;;;;;;;4.45;2.95;;;;;;;10.72;49.75;100502.78;5083213;28;20073;-68
2021/05/01 04:30:32;;;;;;;5.55;3.30;;;;;;;11.27;48.33;100510.13;5083372;28;20087;-67
2021/05/01 04:32:58;;;;;;;4.72;2.55;;;;;;;11.59;46.55;100506.34;5083227;28;20119;-68
2021/05/01 04:35:23;;;;;;;5.05;2.70;;;;;;;11.94;45.78;100500.72;5082856;28;20024;-67
2021/05/01 04:37:49;;;;;;;6.65;2.95;;;;;;;12.31;44.92;100510.69;5083095;28;20025;-67
2021/05/01 04:40:14;;;;;;;6.32;3.50;;;;;;;12.69;43.72;100507.53;5083199;28;20028;-67
2021/05/01 04:42:48;;;;;;;6.03;2.60;;;;;;;13.27;42.73;100507.44;5081750;28;20043;-68
2021/05/01 04:45:16;;;;;;;3.72;2.35;;;;;;;13.57;41.55;100492.13;5083356;28;20028;-67
2021/05/01 04:47:42;;;;;;;4.85;2.28;;;;;;;14.09;41.27;100502.38;5082838;28;20035;-67
2021/05/01 04:50:08;;;;;;;6.93;2.28;;;;;;;14.63;39.75;100502.91;5083002;28;20046;-66
2021/05/01 04:52:33;;;;;;;5.50;2.65;;;;;;;15.07;38.40;100504.50;5083104;28;20436;-67
2021/05/01 04:55:07;;;;;;;3.47;2.00;;;;;;;15.40;37.47;100505.41;5083126;28;20156;-67
2021/05/01 04:57:33;;;;;;;5.03;2.10;;;;;;;15.64;36.42;100498.63;5082876;28;20052;-66
2021/05/01 04:59:58;;;;;;;2.90;2.10;;;;;;;15.71;35.73;100504.53;5083258;28;20028;-68
2021/05/01 05:02:23;;;;;;;2.67;1.70;;;;;;;15.21;35.40;100498.03;5082967;28;20046;-68
2021/05/01 05:04:49;;;;;;;3.40;1.80;;;;;;;15.00;35.82;100502.91;5082698;28;20453;-68
2021/05/01 05:07:14;;;;;;;2.83;1.73;;;;;;;14.94;36.06;100498.72;5083211;28;20044;-68
2021/05/01 05:09:39;;;;;;;3.22;2.20;;;;;;;15.25;35.80;100502.31;5086970;28;20052;-69
2021/05/01 05:12:05;;;;;;;2.38;2.03;;;;;;;15.71;35.38;100505.41;5087114;28;20441;-68
2021/05/01 05:14:30;;;;;;;3.83;1.92;;;;;;;16.33;34.48;100505.38;5086987;28;20036;-67
2021/05/01 05:16:56;;;;;;;2.95;1.70;;;;;;;16.78;33.47;100508.34;5086715;28;20024;-67
2021/05/01 05:19:21;;;;;;;2.47;1.45;;;;;;;17.23;32.38;100511.25;5086730;28;20036;-67
2021/05/01 05:21:47;;;;;;;2.67;1.85;;;;;;;17.82;31.86;100509.16;5086425;28;20024;-67
2021/05/01 05:24:12;;;;;;;4.32;2.00;;;;;;;18.15;30.68;100505.34;5086589;28;20063;-68
2021/05/01 05:26:39;;;;;;;3.33;2.13;;;;;;;18.70;30.20;100505.81;5086455;28;20028;-67
2021/05/01 05:29:04;;;;;;;3.50;1.92;;;;;;;19.37;29.16;100505.69;5086735;28;20063;-68
2021/05/01 05:31:29;;;;;;;6.18;2.40;;;;;;;19.93;28.23;100502.34;5086401;28;20326;-69
2021/05/01 05:33:55;;;;;;;4.68;1.65;;;;;;;19.93;27.31;100512.88;5086335;28;20025;-67
2021/05/01 05:36:20;;;;;;;3.92;2.05;;;;;;;20.13;27.28;100516.38;5086310;28;20032;-68
2021/05/01 05:38:46;;;;;;;4.40;2.05;;;;;;;19.90;27.02;100513.00;5086298;28;20021;-67
2021/05/01 05:41:11;;;;;;;2.90;1.75;;;;;;;19.97;26.64;100518.88;5086408;28;20020;-67
2021/05/01 05:43:36;;;;;;;6.82;1.92;;;;;;;20.21;26.28;100514.22;5086426;28;20025;-68
2021/05/01 05:46:11;;;;;;;4.28;1.90;;;;;;;20.51;25.70;100518.13;5086444;28;20028;-67
2021/05/01 05:48:37;;;;;;;1.88;1.45;;;;;;;20.54;24.61;100515.34;5086447;28;20055;-68
2021/05/01 05:51:03;;;;;;;1.77;1.00;;;;;;;20.18;24.20;100525.78;5086254;28;20016;-67
2021/05/01 05:53:29;;;;;;;2.15;1.17;;;;;;;19.40;23.86;100517.84;5086445;28;20027;-67
2021/05/01 05:55:54;;;;;;;1.40;1.15;;;;;;;18.70;24.13;100524.22;5086194;28;20108;-68
2021/05/01 05:58:21;;;;;;;1.80;1.02;;;;;;;18.78;24.15;100516.03;5086323;28;20032;-68
2021/05/01 06:00:46;;;;;;;1.83;1.08;;;;;;;18.74;23.48;100517.09;5086097;28;20476;-67
2021/05/01 06:03:13;;;;;;;3.75;1.13;;;;;;;18.65;23.06;100526.19;5086217;28;20040;-68
2021/05/01 06:05:48;;;;;;;1.95;1.00;;;;;;;18.82;22.89;100525.50;5085863;28;20028;-66
2021/05/01 06:08:16;;;;;;;3.92;1.15;;;;;;;18.99;22.84;100523.94;5085816;28;20428;-67
2021/05/01 06:10:43;;;;;;;1.55;1.20;;;;;;;19.28;22.83;100517.44;5086102;28;20084;-67
2021/05/01 06:13:11;;;;;;;2.45;1.40;;;;;;;20.05;22.49;100533.41;5085751;28;20028;-68
2021/05/01 06:15:36;;;;;;;3.42;1.13;;;;;;;20.37;21.67;100524.03;5085944;28;20029;-66
2021/05/01 06:18:03;;;;;;;2.47;1.30;;;;;;;20.84;20.79;100525.31;5085242;28;20036;-67
2021/05/01 06:20:32;;;;;;;2.65;1.20;;;;;;;21.12;20.27;100528.38;5085520;28;20047;-67
2021/05/01 06:23:00;;;;;;;3.08;1.20;;;;;;;21.59;20.11;100532.09;5085774;28;20477;-66
2021/05/01 06:25:28;;;;;;;1.55;1.00;;;;;;;21.75;20.10;100526.00;5085677;28;20036;-67
2021/05/01 06:27:54;;;;;;;2.00;1.40;;;;;;;21.81;20.52;100525.69;5085611;28;20021;-66
2021/05/01 06:30:21;;;;;;;3.03;1.30;;;;;;;21.92;19.66;100527.75;5085836;28;20106;-66
2021/05/01 06:32:48;;;;;;;1.95;1.40;;;;;;;21.70;20.03;100528.00;5085632;28;20040;-66
2021/05/01 06:35:13;;;;;;;3.15;1.27;;;;;;;21.58;20.76;100535.66;5085211;28;20021;-67
2021/05/01 06:37:40;;;;;;;1.88;1.10;;;;;;;21.74;20.42;100527.75;5085440;28;20024;-66
2021/05/01 06:40:11;;;;;;;4.40;1.27;;;;;;;21.22;20.23;100534.00;5085531;28;20410;-66
2021/05/01 06:42:54;;;;;;;3.13;0.85;;;;;;;20.86;20.28;100535.78;5085306;28;20043;-66
2021/05/01 06:45:20;;;;;;;1.27;0.80;;;;;;;20.40;20.04;100537.09;5084338;28;20033;-66
2021/05/01 06:47:55;;;;;;;1.42;0.80;;;;;;;19.97;20.29;100529.41;5085356;28;20031;-67
2021/05/01 06:50:23;;;;;;;1.80;0.70;;;;;;;19.42;20.26;100529.16;5085054;28;20017;-66
2021/05/01 06:52:49;;;;;;;1.50;0.90;;;;;;;19.10;20.99;100523.50;5085330;28;20498;-65
2021/05/01 06:55:17;;;;;;;1.50;1.00;;;;;;;19.18;21.11;100526.69;5085176;28;20028;-65
2021/05/01 06:57:53;;;;;;;2.17;1.10;;;;;;;19.28;20.82;100527.16;5084934;28;20055;-66
2021/05/01 07:00:21;;;;;;;3.17;1.00;;;;;;;18.90;21.01;100533.06;5085525;28;20024;-66
2021/05/01 07:02:49;;;;;;;2.67;1.20;;;;;;;18.85;21.33;100535.03;5085294;28;20025;-67
2021/05/01 07:05:22;;;;;;;2.83;0.95;;;;;;;18.75;21.53;100524.91;5084801;28;20119;-66
2021/05/01 07:07:48;;;;;;;2.38;1.00;;;;;;;18.95;21.55;100523.22;5084902;28;20020;-66
2021/05/01 07:10:14;;;;;;;2.72;1.05;;;;;;;19.46;21.10;100524.63;5084985;28;20025;-67
2021/05/01 07:12:43;;;;;;;2.13;1.17;;;;;;;20.07;20.41;100528.06;5084859;28;20020;-66
2021/05/01 07:15:16;;;;;;;2.53;0.90;;;;;;;20.43;19.79;100531.69;5084997;28;20020;-66
2021/05/01 07:17:41;;;;;;;1.58;1.27;;;;;;;20.62;18.94;100526.38;5084839;28;20021;-67
2021/05/01 07:20:09;;;;;;;3.30;0.85;;;;;;;20.73;18.60;100525.84;5084358;28;20074;-66
2021/05/01 07:22:35;;;;;;;1.60;1.00;;;;;;;20.71;18.21;100530.31;5084720;28;20108;-65
2021/05/01 07:25:03;;;;;;;3.90;0.90;;;;;;;20.91;17.67;100521.44;5084438;28;20054;-65
2021/05/01 07:27:35;;;;;;;1.27;0.70;;;;;;;20.89;17.51;100527.72;5084364;28;20020;-65
2021/05/01 07:30:03;;;;;;;2.10;0.90;;;;;;;21.41;16.92;100528.63;5084073;28;20013;-66
2021/05/01 07:32:32;;;;;;;2.20;0.82;;;;;;;21.86;16.39;100533.34;5084581;28;20373;-66
2021/05/01 07:35:01;;;;;;;0.75;0.52;;;;;;;21.98;15.91;100529.22;5084068;28;20134;-65
2021/05/01 07:37:27;;;;;;;1.25;0.80;;;;;;;22.16;15.24;100530.84;5084338;28;20070;-66
2021/05/01 07:39:53;;;;;;;1.15;0.80;;;;;;;22.30;15.10;100523.91;5084504;28;20052;-67
2021/05/01 07:42:23;;;;;;;1.25;0.75;;;;;;;22.58;15.31;100532.94;5084004;28;20032;-68
2021/05/01 07:44:56;;;;;;;1.40;0.65;;;;;;;23.08;14.51;100534.53;5084465;28;20039;-67
2021/05/01 07:47:23;;;;;;;1.38;0.80;;;;;;;23.35;13.91;100534.69;5084096;28;20036;-67
2021/05/01 07:49:51;;;;;;;1.98;0.80;;;;;;;23.81;14.14;100531.97;5083875;28;20024;-67
2021/05/01 07:52:18;;;;;;;2.88;0.73;;;;;;;23.85;13.59;100542.28;5084429;28;20047;-67
2021/05/01 07:54:43;;;;;;;1.48;0.73;;;;;;;23.80;13.50;100533.78;5084201;28;20020;-65
2021/05/01 07:57:10;;;;;;;1.55;0.80;;;;;;;23.96;13.48;100538.94;5083482;28;20067;-65
2021/05/01 07:59:35;;;;;;;1.20;0.70;;;;;;;23.79;13.15;100536.53;5083830;28;20057;-67
2021/05/01 08:02:02;;;;;;;1.30;0.60;;;;;;;23.54;12.73;100545.97;5083818;28;20171;-67
2021/05/01 08:04:28;;;;;;;2.83;0.70;;;;;;;23.50;13.13;100543.50;5083739;28;20039;-67
2021/05/01 08:06:56;;;;;;;1.48;0.60;;;;;;;23.56;13.28;100546.75;5083981;28;20012;-68
2021/05/01 08:09:22;;;;;;;1.45;0.60;;;;;;;23.89;12.71;100542.94;5082819;28;20438;-69
2021/05/01 08:11:47;;;;;;;2.03;0.82;;;;;;;24.03;13.37;100539.41;5083651;28;20024;-69
2021/05/01 08:14:13;;;;;;;2.80;0.70;;;;;;;24.22;12.83;100546.22;5083500;28;20032;-66
2021/05/01 08:16:38;;;;;;;4.80;0.90;;;;;;;24.02;12.67;100543.88;5083458;28;20049;-65
2021/05/01 08:19:04;;;;;;;2.75;0.80;;;;;;;23.65;13.40;100543.53;5083371;28;20024;-69
2021/05/01 08:21:30;;;;;;;1.75;0.65;;;;;;;23.72;12.97;100542.19;5083489;28;20016;-63
2021/05/01 08:23:55;;;;;;;0.90;0.63;;;;;;;23.73;13.34;100543.03;5083830;28;20028;-65
2021/05/01 08:26:21;;;;;;;1.30;0.57;;;;;;;23.43;14.06;100543.97;5083631;28;20418;-61
2021/05/01 08:28:46;;;;;;;1.20;0.80;;;;;;;23.07;13.83;100546.91;5083175;28;20016;-66
2021/05/01 08:31:12;;;;;;;1.27;0.75;;;;;;;22.74;14.23;100548.81;5082339;28;20036;-62
2021/05/01 08:33:37;;;;;;;1.85;0.80;;;;;;;22.49;14.89;100555.47;5083767;28;20035;-66
2021/05/01 08:36:03;;;;;;;4.07;0.85;;;;;;;22.42;14.84;100551.47;5083132;28;20039;-65
2021/05/01 08:38:32;;;;;;;6.50;1.15;;;;;;;22.24;15.20;100551.56;5083505;28;20031;-66
2021/05/01 08:41:00;;;;;;;1.92;0.80;;;;;;;21.88;16.12;100544.72;5083351;28;20361;-60
2021/05/01 08:43:25;;;;;;;4.20;0.88;;;;;;;21.90;16.21;100551.63;5083670;28;20028;-65
2021/05/01 08:45:52;;;;;;;1.40;0.80;;;;;;;21.42;16.78;100556.75;5083560;28;20063;-62
2021/05/01 08:48:17;;;;;;;2.80;1.05;;;;;;;20.83;17.86;100559.69;5083224;28;20469;-65
2021/05/01 08:50:59;;;;;;;1.80;1.00;;;;;;;20.38;18.77;100553.00;5083091;28;20058;-66
2021/05/01 08:53:24;;;;;;;;;;;;;;;20.16;19.50;100551.34;5083870;28;20112;-69
2021/05/01 08:55:50;;;;;;;4.38;1.02;;;;;;;19.87;20.41;100560.56;5081819;28;20365;-66
2021/05/01 08:58:15;;;;;;;1.50;0.90;;;;;;;19.99;21.02;100560.00;5083136;28;20032;-67
2021/05/01 09:00:43;;;;;;;4.85;1.38;;;;;;;20.33;20.83;100554.13;5083315;28;20335;-67
2021/05/01 09:03:11;;;;;;;2.00;0.80;;;;;;;20.84;19.99;100550.81;5083509;28;20024;-74
2021/05/01 09:05:38;;;;;;;1.95;1.00;;;;;;;20.96;19.61;100542.31;5083050;28;20020;-66
2021/05/01 09:08:05;;;;;;;3.10;1.27;;;;;;;20.98;19.95;100547.53;5083592;28;20022;-68
2021/05/01 09:10:38;;;;;;;2.42;1.08;;;;;;;21.23;20.21;100544.50;5083346;28;20028;-66
2021/05/01 09:13:12;;;;;;;1.30;0.80;;;;;;;20.96;20.43;100542.31;5083266;28;20017;-67
2021/05/01 09:15:37;;;;;;;2.40;0.98;;;;;;;20.08;21.15;100553.47;5083372;28;20028;-69
2021/05/01 09:18:04;;;;;;;1.85;1.10;;;;;;;19.37;21.61;100544.31;5082858;28;20383;-68
2021/05/01 09:20:31;;;;;;;1.58;0.93;;;;;;;18.92;21.61;100553.13;5082620;28;20020;-67
2021/05/01 09:22:57;;;;;;;3.35;1.00;;;;;;;19.01;21.74;100562.41;5082783;28;20017;-67
2021/05/01 09:25:25;;;;;;;1.55;1.05;;;;;;;19.96;21.02;100556.66;5082944;28;20055;-63
2021/05/01 09:28:01;;;;;;;4.63;1.10;;;;;;;21.33;19.96;100557.22;5082727;28;20027;-61
2021/05/01 09:30:30;;;;;;;3.83;1.33;;;;;;;22.22;18.45;100553.41;5082693;28;20053;-66
2021/05/01 09:33:22;;;;;;;1.70;0.90;;;;;;;22.74;17.74;100562.06;5082699;28;20017;-62
2021/05/01 09:35:53;;;;;;;2.70;1.15;;;;;;;22.45;17.74;100561.88;5082474;28;20074;-60
2021/05/01 09:38:19;;;;;;;2.78;1.25;;;;;;;22.15;17.92;100547.66;5082560;28;20028;-61
2021/05/01 09:40:46;;;;;;;1.77;0.90;;;;;;;21.71;18.29;100561.44;5082887;28;20476;-63
2021/05/01 09:43:12;;;;;;;1.58;1.00;;;;;;;21.19;18.49;100564.06;5083018;28;20088;-63
2021/05/01 09:45:38;;;;;;;1.98;1.15;;;;;;;20.60;18.84;100554.59;5082875;28;20020;-62
2021/05/01 09:48:13;;;;;;;2.05;1.13;;;;;;;20.05;18.37;100557.13;5082640;28;20029;-64
2021/05/01 09:50:38;;;;;;;1.90;0.80;;;;;;;19.61;18.01;100565.22;5082588;28;20035;-64
2021/05/01 09:53:08;;;;;;;0.80;0.60;;;;;;;19.10;18.31;100561.22;5082941;28;20017;-62
2021/05/01 09:55:59;;;;;;;1.08;0.60;;;;;;;18.91;18.82;100561.94;5086485;28;20021;-63
2021/05/01 09:58:31;;;;;;;1.17;0.93;;;;;;;19.15;19.56;100558.38;5084208;28;20048;-62
2021/05/01 10:01:14;;;;;;;3.00;1.00;;;;;;;19.89;19.63;100558.72;5086373;28;20031;-63
2021/05/01 10:03:40;;;;;;;1.35;0.77;;;;;;;20.61;19.34;100550.16;5086254;28;20079;-63
2021/05/01 10:06:08;;;;;;;2.33;0.88;;;;;;;20.97;19.57;100546.69;5085832;28;20028;-61
2021/05/01 10:08:34;;;;;;;1.75;0.85;;;;;;;21.29;19.44;100553.91;5085823;28;20028;-62
2021/05/01 10:11:10;;;;;;;1.52;1.08;;;;;;;21.52;19.30;100552.69;5086208;28;20021;-62
2021/05/01 10:13:47;;;;;;;1.25;0.90;;;;;;;21.65;18.90;100547.63;5085875;28;20048;-65
2021/05/01 10:16:12;;;;;;;3.15;1.20;;;;;;;21.38;19.27;100555.19;5086019;28;20020;-65
2021/05/01 10:18:40;;;;;;;6.82;1.63;;;;;;;21.47;19.33;100554.72;5085866;28;20026;-66
2021/05/01 10:21:05;;;;;;;3.03;1.45;;;;;;;21.87;19.32;100550.94;5085603;28;20017;-65
2021/05/01 10:23:45;;;;;;;2.03;1.10;;;;;;;21.78;19.49;100547.84;5085885;28;20024;-64
2021/05/01 10:26:13;;;;;;;1.45;0.82;;;;;;;21.53;19.69;100564.13;5085868;28;20032;-64
2021/05/01 10:28:49;;;;;;;1.38;0.82;;;;;;;21.66;19.38;100553.78;5085512;28;20089;-66
2021/05/01 10:31:18;;;;;;;1.75;0.88;;;;;;;21.71;19.30;100553.53;5084462;28;20020;-66
2021/05/01 10:33:48;;;;;;;2.03;0.80;;;;;;;21.59;19.26;100553.22;5085630;28;20058;-64
2021/05/01 10:36:23;;;;;;;1.70;0.80;;;;;;;21.36;18.88;100551.81;5085196;28;20025;-65
2021/05/01 10:39:09;;;;;;;2.03;0.90;;;;;;;20.32;19.18;100548.00;5085604;28;20054;-65
2021/05/01 10:41:35;;;;;;;2.33;0.90;;;;;;;19.28;20.37;100551.66;5085471;28;20024;-64
2021/05/01 10:44:06;;;;;;;1.55;1.00;;;;;;;18.96;21.09;100551.25;5085602;28;20028;-65
2021/05/01 10:46:39;;;;;;;2.63;0.95;;;;;;;18.77;21.45;100549.34;5085415;28;20032;-64
2021/05/01 10:49:10;;;;;;;1.42;0.90;;;;;;;18.53;21.43;100553.84;5085205;28;20021;-67
2021/05/01 10:51:36;;;;;;;1.63;1.13;;;;;;;18.35;21.71;100550.16;5085162;28;20017;-66
2021/05/01 10:54:12;;;;;;;1.17;0.80;;;;;;;18.20;21.57;100548.06;5085268;28;20039;-66
2021/05/01 10:56:58;;;;;;;1.35;0.88;;;;;;;17.83;21.68;100547.63;5084845;28;20054;-66
2021/05/01 10:59:27;;;;;;;5.88;1.10;;;;;;;17.42;22.22;100552.59;5084684;28;20068;-66
2021/05/01 11:01:54;;;;;;;1.95;0.90;;;;;;;17.44;22.61;100551.63;5083509;28;20020;-64
2021/05/01 11:04:25;;;;;;;2.05;0.90;;;;;;;17.55;22.72;100558.28;5084466;28;20024;-63
2021/05/01 11:06:58;;;;;;;2.10;0.95;;;;;;;17.57;22.60;100553.84;5084093;28;20024;-61
2021/05/01 11:09:47;;;;;;;3.03;1.10;;;;;;;17.51;23.00;100557.50;5084830;28;20111;-62
2021/05/01 11:12:14;;;;;;;2.00;1.20;;;;;;;17.36;22.98;100553.69;5085000;28;20020;-63
2021/05/01 11:15:18;;;;;;;3.08;1.25;;;;;;;17.05;22.94;100552.03;5084835;28;20020;-61
2021/05/01 11:17:56;;;;;;;3.55;1.33;;;;;;;16.87;23.66;100554.34;5084618;28;20016;-62
2021/05/01 11:20:22;;;;;;;6.18;1.30;;;;;;;16.81;24.24;100557.19;5084351;28;20059;-63
2021/05/01 11:22:52;;;;;;;3.58;1.33;;;;;;;16.64;24.84;100552.50;5084669;28;20020;-63
2021/05/01 11:25:19;;;;;;;5.18;1.55;;;;;;;16.30;25.32;100552.63;5084556;28;20336;-64
2021/05/01 11:27:51;;;;;;;2.70;1.73;;;;;;;15.97;26.15;100558.78;5084284;28;20020;-63
2021/05/01 11:30:20;;;;;;;3.00;1.50;;;;;;;15.73;27.06;100561.16;5084451;28;20028;-64